Time;durP1;ratioP1;P1;durP2;ratioP2;P2;SDS_P1;SDS_P2;PMS_P1;PMS_P2;Temp;Humidity;BMP_temperature;BMP_pressure;BME280_temperature;BME280_humidity;BME280_pressure;Samples;Min_cycle;Max_cycle;Signal;HPM_P1;HPM_P2
2021/12/11 09:29:24;;;;;;;10.53;5.07;;;;;;;3.31;100.00;98696.78;5181902;27;20561;-83
2021/12/11 09:32:03;;;;;;;10.03;5.17;;;;;;;3.76;100.00;98674.16;5130321;27;39179;-84
2021/12/11 09:34:36;;;;;;;8.50;4.30;;;;;;;4.34;100.00;98684.97;5130530;27;41004;-84
2021/12/11 09:37:07;;;;;;;5.43;3.83;;;;;;;4.84;100.00;98703.03;5129984;27;43677;-84
2021/12/11 09:39:41;;;;;;;5.50;4.40;;;;;;;5.03;100.00;98677.72;5146596;27;42230;-83
2021/12/11 09:42:08;;;;;;;9.50;4.57;;;;;;;5.43;95.81;98702.25;5166191;27;40252;-84
2021/12/11 09:44:42;;;;;;;7.67;4.53;;;;;;;5.58;91.72;98710.28;5148427;27;40622;-89
2021/12/11 09:47:14;;;;;;;6.67;3.73;;;;;;;5.74;90.39;98718.34;5129731;27;42598;-83
2021/12/11 09:49:47;;;;;;;7.20;4.53;;;;;;;5.85;88.26;98718.69;5129822;27;40804;-83
2021/12/11 09:52:23;;;;;;;6.33;3.93;;;;;;;5.96;86.81;98724.34;5129513;27;38978;-86
2021/12/11 09:54:54;;;;;;;6.10;4.57;;;;;;;6.04;85.46;98729.25;5130400;27;42581;-85
2021/12/11 09:57:24;;;;;;;5.33;3.60;;;;;;;6.06;84.97;98715.09;5145812;27;41757;-83
2021/12/11 09:59:58;;;;;;;4.70;3.53;;;;;;;6.22;84.02;98728.38;5129730;27;41323;-83
2021/12/11 10:02:29;;;;;;;8.07;3.97;;;;;;;6.34;83.39;98742.75;5146386;27;38692;-83
2021/12/11 10:05:01;;;;;;;7.43;4.47;;;;;;;6.33;82.50;98731.38;5129433;27;40761;-84
2021/12/11 10:07:34;;;;;;;5.10;3.73;;;;;;;6.53;82.18;98743.59;5129803;27;43096;-85
2021/12/11 10:10:11;;;;;;;8.93;4.93;;;;;;;6.52;80.94;98727.88;5128227;27;41890;-82
2021/12/11 10:12:47;;;;;;;4.80;3.70;;;;;;;6.69;80.36;98739.25;5129740;27;39186;-82
2021/12/11 10:15:20;;;;;;;7.13;4.30;;;;;;;6.80;79.84;98744.00;5130318;27;40453;-85
2021/12/11 10:17:51;;;;;;;5.83;3.93;;;;;;;6.79;79.88;98727.38;5127633;27;43095;-83
2021/12/11 10:20:22;;;;;;;5.77;4.30;;;;;;;7.06;79.54;98755.88;5129824;27;41542;-83
2021/12/11 10:22:51;;;;;;;6.93;4.20;;;;;;;7.00;78.28;98737.78;5129204;27;39140;-82
2021/12/11 10:25:22;;;;;;;6.50;4.53;;;;;;;7.24;78.17;98762.88;5146386;27;40938;-82
2021/12/11 10:27:49;;;;;;;6.93;4.63;;;;;;;7.28;77.37;98769.69;5125856;27;41907;-86
2021/12/11 10:30:23;;;;;;;5.40;3.87;;;;;;;7.35;76.64;98772.84;5146208;27;41278;-84
2021/12/11 10:32:51;;;;;;;5.80;3.90;;;;;;;7.09;76.27;98730.25;5128689;27;39993;-80
2021/12/11 10:35:25;;;;;;;6.23;4.27;;;;;;;7.38;75.47;98784.09;5145961;27;42980;-82
2021/12/11 10:37:53;;;;;;;7.57;4.33;;;;;;;7.34;75.24;98773.78;5129376;27;41975;-85
2021/12/11 10:40:26;;;;;;;4.70;3.73;;;;;;;7.33;74.03;98788.75;5135265;27;42072;-86
2021/12/11 10:42:58;;;;;;;6.20;4.07;;;;;;;7.22;74.27;98770.00;5115767;27;38762;-87
2021/12/11 10:45:28;;;;;;;6.00;3.93;;;;;;;7.34;74.99;98774.66;5132787;27;40483;-82
2021/12/11 10:48:00;;;;;;;5.70;3.90;;;;;;;7.39;73.87;98787.59;5131215;27;42831;-84
2021/12/11 10:50:33;;;;;;;5.70;3.43;;;;;;;7.38;73.49;98781.47;5115641;27;42265;-85
2021/12/11 10:53:01;;;;;;;6.73;3.90;;;;;;;7.46;73.31;98795.09;5126877;27;39932;-84
2021/12/11 10:55:32;;;;;;;4.50;3.30;;;;;;;7.44;73.90;98781.13;5133445;27;41629;-87
2021/12/11 10:58:07;;;;;;;7.60;4.70;;;;;;;7.41;72.46;98797.13;5133115;27;43710;-82
2021/12/11 11:00:40;;;;;;;8.67;4.20;;;;;;;7.32;70.64;98818.66;5132349;27;42182;-80
2021/12/11 11:03:09;;;;;;;5.70;3.47;;;;;;;7.14;71.56;98802.00;5116055;27;39250;-84
2021/12/11 11:05:38;;;;;;;4.33;3.80;;;;;;;7.18;72.53;98811.41;5131787;27;40898;-83
2021/12/11 11:08:07;;;;;;;8.30;4.43;;;;;;;7.25;72.63;98833.06;5131561;27;43847;-83
2021/12/11 11:10:38;;;;;;;5.33;3.73;;;;;;;7.20;72.57;98816.63;5114814;27;42350;-84
2021/12/11 11:13:10;;;;;;;6.03;3.73;;;;;;;7.10;72.32;98828.53;5114600;27;38692;-82
2021/12/11 11:15:40;;;;;;;6.80;3.87;;;;;;;7.08;72.48;98835.66;5114059;27;41872;-85
2021/12/11 11:18:10;;;;;;;7.87;4.43;;;;;;;7.07;72.18;98841.84;5115034;27;42265;-84
2021/12/11 11:20:43;;;;;;;4.13;3.10;;;;;;;7.05;72.12;98847.19;5114616;27;42164;-81
2021/12/11 11:23:11;;;;;;;6.00;3.63;;;;;;;7.02;71.95;98854.41;5130811;27;39044;-82
2021/12/11 11:25:42;;;;;;;5.53;3.37;;;;;;;6.88;72.67;98839.25;5132268;27;41701;-82
2021/12/11 11:28:13;;;;;;;7.47;4.33;;;;;;;6.84;72.64;98842.97;5113586;27;41809;-84
2021/12/11 11:30:46;;;;;;;6.23;4.50;;;;;;;6.73;72.20;98843.47;5114530;27;42249;-83
2021/12/11 11:33:15;;;;;;;5.07;3.50;;;;;;;6.75;72.93;98860.03;5114344;27;38703;-81
2021/12/11 11:35:44;;;;;;;5.93;3.57;;;;;;;6.72;73.03;98865.44;5131055;27;41410;-83
2021/12/11 11:38:16;;;;;;;4.80;3.60;;;;;;;6.65;73.67;98861.41;5130386;27;42107;-86
2021/12/11 11:40:47;;;;;;;7.77;4.33;;;;;;;6.47;73.83;98855.19;5131322;27;41785;-84
2021/12/11 11:43:16;;;;;;;6.30;4.27;;;;;;;6.44;73.35;98868.50;5113159;27;40480;-85
2021/12/11 11:45:46;;;;;;;7.97;4.30;;;;;;;6.03;73.37;98817.78;5113869;27;40568;-85
2021/12/11 11:48:14;;;;;;;5.73;3.43;;;;;;;6.42;73.40;98887.91;5130644;27;41636;-84
2021/12/11 11:50:46;;;;;;;7.83;4.67;;;;;;;6.38;73.28;98902.13;5113055;27;41319;-82
2021/12/11 11:53:14;;;;;;;8.90;4.10;;;;;;;6.32;72.96;98912.91;5114267;27;38869;-84
2021/12/11 11:55:46;;;;;;;6.53;4.07;;;;;;;6.15;72.88;98894.41;5114004;27;40610;-83
2021/12/11 11:58:14;;;;;;;8.80;4.40;;;;;;;6.13;73.71;98897.94;5130955;27;42754;-81
2021/12/11 12:00:46;;;;;;;7.60;5.00;;;;;;;6.23;73.81;98913.31;5130503;27;41939;-85
2021/12/11 12:03:17;;;;;;;6.33;4.50;;;;;;;6.20;73.32;98930.06;5130702;27;40915;-85
2021/12/11 12:05:48;;;;;;;7.53;4.40;;;;;;;6.12;73.46;98921.69;5131329;27;41913;-85
2021/12/11 12:08:17;;;;;;;8.60;5.33;;;;;;;6.06;73.39;98912.25;5112872;27;41986;-83
2021/12/11 12:10:46;;;;;;;7.40;4.40;;;;;;;6.20;73.71;98929.22;5115636;27;42221;-83
2021/12/11 12:13:16;;;;;;;8.90;4.63;;;;;;;6.24;73.31;98933.44;5116215;27;38990;-83
2021/12/11 12:15:50;;;;;;;10.20;4.97;;;;;;;6.25;73.52;98940.41;5113451;27;41082;-83
2021/12/11 12:18:19;;;;;;;8.00;4.90;;;;;;;6.15;73.60;98931.22;5130935;27;41902;-81
2021/12/11 12:20:49;;;;;;;7.80;5.37;;;;;;;6.13;73.53;98932.13;5130476;27;41985;-82
2021/12/11 12:23:20;;;;;;;8.27;4.63;;;;;;;6.12;74.10;98926.94;5164326;27;39956;-85
2021/12/11 12:25:49;;;;;;;8.43;5.10;;;;;;;6.12;73.77;98933.03;5129956;27;41758;-81
2021/12/11 12:28:19;;;;;;;10.77;5.13;;;;;;;6.23;73.55;98965.91;5113146;27;42752;-82
2021/12/11 12:30:52;;;;;;;9.27;5.37;;;;;;;6.25;73.52;98978.06;5113316;27;41156;-80
2021/12/11 12:33:20;;;;;;;7.07;4.90;;;;;;;6.25;73.12;98969.34;5112934;27;39143;-85
2021/12/11 12:35:48;;;;;;;8.43;5.60;;;;;;;6.30;73.71;98967.38;5130079;27;41810;-85
2021/12/11 12:38:19;;;;;;;8.67;5.53;;;;;;;6.28;73.57;98969.22;5130885;27;42816;-85
2021/12/11 12:40:55;;;;;;;7.87;4.77;;;;;;;6.29;73.11;98976.19;5112763;27;42367;-83
2021/12/11 12:43:54;;;;;;;6.27;4.53;;;;;;;6.32;73.25;98970.75;5147229;27;38884;-80
2021/12/11 12:46:28;;;;;;;7.33;4.93;;;;;;;6.36;73.07;98988.13;5112766;27;41779;-80
2021/12/11 12:48:56;;;;;;;8.40;5.10;;;;;;;6.34;72.98;98989.97;5113109;27;41778;-85
2021/12/11 12:51:24;;;;;;;8.33;5.03;;;;;;;6.26;73.15;98973.66;5113292;27;41101;-82
2021/12/11 12:53:56;;;;;;;8.80;5.07;;;;;;;6.36;72.88;98998.66;5130774;27;40102;-81
2021/12/11 12:56:27;;;;;;;9.37;5.40;;;;;;;6.02;72.72;98955.41;5113312;27;40946;-82
2021/12/11 12:59:00;;;;;;;8.43;5.00;;;;;;;6.30;72.98;98998.94;5129845;27;42504;-83
2021/12/11 13:01:33;;;;;;;7.63;4.87;;;;;;;6.27;72.95;99007.78;5130182;27;42210;-84
2021/12/11 13:04:03;;;;;;;9.37;5.20;;;;;;;6.18;72.84;99005.56;5112308;27;39261;-88
2021/12/11 13:06:34;;;;;;;8.63;5.13;;;;;;;6.18;72.65;99015.22;5112718;27;41503;-85
2021/12/11 13:09:09;;;;;;;7.93;4.93;;;;;;;6.08;72.91;99004.22;5129284;27;42479;-87
2021/12/11 13:11:41;;;;;;;6.80;4.30;;;;;;;6.18;73.02;99016.09;5141650;27;43386;-83
2021/12/11 13:14:09;;;;;;;9.83;4.90;;;;;;;6.09;73.17;99006.78;5143198;27;41272;-81
2021/12/11 13:16:43;;;;;;;6.23;3.63;;;;;;;6.22;73.17;99028.16;5124401;27;40940;-79
2021/12/11 13:19:18;;;;;;;7.43;5.33;;;;;;;6.25;72.98;99038.56;5120809;27;42148;-80
2021/12/11 13:21:51;;;;;;;6.43;5.13;;;;;;;6.21;73.17;99025.59;5137550;27;43347;-83
2021/12/11 13:24:19;;;;;;;6.43;4.17;;;;;;;6.32;73.07;99036.50;5123903;27;40192;-83
2021/12/11 13:26:51;;;;;;;5.47;4.57;;;;;;;6.28;73.14;99025.28;5112821;27;41533;-84
2021/12/11 13:29:23;;;;;;;8.03;4.20;;;;;;;6.30;73.04;99018.19;5131348;27;42802;-82
2021/12/11 13:32:00;;;;;;;7.00;4.33;;;;;;;6.36;72.63;99030.22;5113073;27;40843;-85
2021/12/11 13:34:29;;;;;;;6.97;4.27;;;;;;;6.27;72.83;99009.56;5131576;27;40029;-84
2021/12/11 13:36:58;;;;;;;7.90;4.40;;;;;;;6.38;72.54;99031.00;5129596;27;41748;-85
2021/12/11 13:39:26;;;;;;;9.60;5.13;;;;;;;6.54;72.35;99049.63;5128828;27;42820;-80
2021/12/11 13:41:59;;;;;;;6.93;4.60;;;;;;;6.44;71.83;99043.88;5128611;27;42324;-82
2021/12/11 13:44:30;;;;;;;8.50;5.73;;;;;;;6.49;71.74;99047.19;5127911;27;39623;-83
2021/12/11 13:47:02;;;;;;;9.43;4.50;;;;;;;6.65;71.75;99068.44;5110937;27;40604;-85
2021/12/11 13:49:31;;;;;;;7.97;5.30;;;;;;;6.62;71.38;99072.03;5130854;27;42432;-85
2021/12/11 13:51:59;;;;;;;10.50;5.03;;;;;;;6.50;70.72;99067.31;5112083;27;41177;-83
2021/12/11 13:54:28;;;;;;;9.43;5.67;;;;;;;6.49;71.05;99084.00;5129638;27;40071;-81
2021/12/11 13:57:00;;;;;;;7.67;4.50;;;;;;;6.36;70.75;99072.28;5128140;27;41049;-86
2021/12/11 13:59:28;;;;;;;8.50;5.17;;;;;;;6.44;70.68;99093.84;5112228;27;43006;-85
2021/12/11 14:01:57;;;;;;;7.53;4.33;;;;;;;6.33;70.84;99085.56;5128304;27;43127;-85
2021/12/11 14:04:29;;;;;;;6.80;4.77;;;;;;;6.26;70.92;99084.13;5128088;27;38983;-83
